Fall River Mills, California
Current Conditions -  °F | °C
As of 7:56 PM on Monday 22 Dec 2014 (Local Time) from KMHS Reporting Station
Overcast Overcast  
Wind Chill: 52°   Ceiling: 2700
Heat Index: 52°   Visibility: 10mi
Dew Point: 44°   Wind: 3mph
Humidity: 74%   Direction: NA
Pressure: 30.32"   Gusts: NA
Location:  41°N, 121.44°W
Report Text: KMHS 230356Z AUTO VRB03KT 10SM SCT019 OVC027 11/07 A3032 RMK AO2 SLP280 T01110067
Loading
Personal Weather Stations






























Interactive Weather Map New forecast layout! Learn more

10-Day Weather Forecast

Advertisements
Track Severe Weather on mobile